createdAt,value
2019-05-01T00:00:31.776Z,18.35
2019-05-01T00:01:31.717Z,18.27
2019-05-01T00:02:31.653Z,18.21
2019-05-01T00:03:31.562Z,18.18
2019-05-01T00:04:52.483Z,18.12
2019-05-01T00:05:31.432Z,18.26
2019-05-01T00:06:31.360Z,18.21
2019-05-01T00:07:31.330Z,18.23
2019-05-01T00:08:31.249Z,18.25
2019-05-01T00:09:31.174Z,18.21
2019-05-01T00:10:52.095Z,18.17
2019-05-01T00:11:31.022Z,18.02
2019-05-01T00:12:30.952Z,18.05
2019-05-01T00:13:30.894Z,17.87
2019-05-01T00:14:30.814Z,17.89
2019-05-01T00:15:30.764Z,17.79
2019-05-01T00:16:51.703Z,17.78
2019-05-01T00:17:30.610Z,17.68
2019-05-01T00:18:30.544Z,17.64
2019-05-01T00:19:30.503Z,17.78
2019-05-01T00:20:30.432Z,17.78
2019-05-01T00:21:30.367Z,17.78
2019-05-01T00:22:51.277Z,17.82
2019-05-01T00:23:30.201Z,17.84
2019-05-01T00:24:30.135Z,17.87
2019-05-01T00:25:30.100Z,17.84
2019-05-01T00:26:30.018Z,17.79
2019-05-01T00:27:29.932Z,17.71
2019-05-01T00:28:50.846Z,17.58
2019-05-01T00:29:29.790Z,17.54
2019-05-01T00:30:30.428Z,17.51
2019-05-01T00:31:29.678Z,17.38
2019-05-01T00:32:29.609Z,17.48
2019-05-01T00:33:29.518Z,17.51
2019-05-01T00:34:50.432Z,17.51
2019-05-01T00:35:29.409Z,17.63
2019-05-01T00:36:29.340Z,17.62
2019-05-01T00:37:29.266Z,17.77
2019-05-01T00:38:29.198Z,17.75
2019-05-01T00:39:29.106Z,17.81
2019-05-01T00:40:50.023Z,17.81
2019-05-01T00:41:28.974Z,17.84
2019-05-01T00:42:28.906Z,17.86
2019-05-01T00:43:28.864Z,17.86
2019-05-01T00:44:28.801Z,18.02
2019-05-01T00:45:28.725Z,18.02
2019-05-01T00:46:49.641Z,18.11
2019-05-01T00:47:28.572Z,17.97
2019-05-01T00:48:28.492Z,17.96
2019-05-01T00:49:28.444Z,17.96
2019-05-01T00:50:28.389Z,17.93
2019-05-01T00:51:28.287Z,17.93
2019-05-01T00:52:49.200Z,17.96
2019-05-01T00:53:28.157Z,18.02
2019-05-01T00:54:28.107Z,18.05
2019-05-01T00:55:28.040Z,18.11
2019-05-01T00:56:27.979Z,18.05
2019-05-01T00:57:27.880Z,18.03
2019-05-01T00:58:48.802Z,18.03
2019-05-01T00:59:27.762Z,18.08
2019-05-01T01:00:27.735Z,18.07
2019-05-01T01:01:27.635Z,18.07
2019-05-01T01:02:27.563Z,18.07
2019-05-01T01:03:27.468Z,17.90
2019-05-01T01:04:48.387Z,18.00
2019-05-01T01:05:27.354Z,17.96
2019-05-01T01:06:27.291Z,17.99
2019-05-01T01:07:27.199Z,17.92
2019-05-01T01:08:27.130Z,17.95
2019-05-01T01:09:27.060Z,17.92
2019-05-01T01:10:47.979Z,17.92
2019-05-01T01:11:26.948Z,17.95
2019-05-01T01:12:26.902Z,17.96
2019-05-01T01:13:26.820Z,17.93
2019-05-01T01:14:26.745Z,18.00
2019-05-01T01:15:26.650Z,17.93
2019-05-01T01:16:47.566Z,18.02
2019-05-01T01:17:26.541Z,18.00
2019-05-01T01:18:26.449Z,17.96
2019-05-01T01:19:26.402Z,18.02
2019-05-01T01:20:26.333Z,17.92
2019-05-01T01:21:26.283Z,18.10
2019-05-01T01:22:47.156Z,18.10
2019-05-01T01:23:26.128Z,18.07
2019-05-01T01:24:26.067Z,17.96
2019-05-01T01:25:25.995Z,17.95
2019-05-01T01:26:25.952Z,17.95
2019-05-01T01:27:25.833Z,17.77
2019-05-01T01:28:46.748Z,17.90
2019-05-01T01:29:25.734Z,17.90
2019-05-01T01:30:25.655Z,17.89
2019-05-01T01:31:25.556Z,17.89
2019-05-01T01:32:25.503Z,17.84
2019-05-01T01:33:25.425Z,17.87
2019-05-01T01:34:46.349Z,17.59
2019-05-01T01:35:25.336Z,17.36
2019-05-01T01:36:25.242Z,17.28
2019-05-01T01:37:25.151Z,17.18
2019-05-01T01:38:25.082Z,17.19
2019-05-01T01:39:25.043Z,17.25
2019-05-01T01:40:45.948Z,17.16
2019-05-01T01:41:24.905Z,17.00
2019-05-01T01:42:24.840Z,17.08
2019-05-01T01:43:24.777Z,17.11
2019-05-01T01:44:24.672Z,17.14
2019-05-01T01:45:24.607Z,17.21
2019-05-01T01:46:45.520Z,17.21
2019-05-01T01:47:24.486Z,17.28
2019-05-01T01:48:24.425Z,17.26
2019-05-01T01:49:24.355Z,17.34
2019-05-01T01:50:24.285Z,17.41
2019-05-01T01:51:24.192Z,17.43
2019-05-01T01:52:45.118Z,17.38
2019-05-01T01:53:24.081Z,17.26
2019-05-01T01:54:24.010Z,17.30
2019-05-01T01:55:23.922Z,17.21
2019-05-01T01:56:23.870Z,17.26
2019-05-01T01:57:23.796Z,17.30
2019-05-01T01:58:44.696Z,17.23
2019-05-01T01:59:23.667Z,17.30
2019-05-01T02:00:23.599Z,17.36
2019-05-01T02:01:23.530Z,17.25
2019-05-01T02:02:23.461Z,17.30
2019-05-01T02:03:23.370Z,17.19
2019-05-01T02:04:44.288Z,17.15
2019-05-01T02:05:23.232Z,16.88
2019-05-01T02:06:23.181Z,16.63
2019-05-01T02:07:23.127Z,16.42
2019-05-01T02:08:23.046Z,16.30
2019-05-01T02:09:22.960Z,16.31
2019-05-01T02:10:43.902Z,16.17
2019-05-01T02:11:22.846Z,16.17
2019-05-01T02:12:22.782Z,16.20
2019-05-01T02:13:22.710Z,16.20
2019-05-01T02:14:22.642Z,16.30
2019-05-01T02:15:22.549Z,16.23
2019-05-01T02:16:43.460Z,16.30
2019-05-01T02:17:22.402Z,16.34
2019-05-01T02:18:22.337Z,16.34
2019-05-01T02:19:22.309Z,16.31
2019-05-01T02:20:22.220Z,16.14
2019-05-01T02:21:22.158Z,16.08
2019-05-01T02:22:43.068Z,16.07
2019-05-01T02:23:21.993Z,16.04
2019-05-01T02:24:21.925Z,16.08
2019-05-01T02:25:21.872Z,16.20
2019-05-01T02:26:21.799Z,16.17
2019-05-01T02:27:21.715Z,16.30
2019-05-01T02:28:42.630Z,16.38
2019-05-01T02:29:21.576Z,16.27
2019-05-01T02:30:21.507Z,16.30
2019-05-01T02:31:28.378Z,16.25
2019-05-01T02:32:21.394Z,16.34
2019-05-01T02:33:21.297Z,16.39
2019-05-01T02:34:42.211Z,16.31
2019-05-01T02:35:21.181Z,16.50
2019-05-01T02:36:21.116Z,16.46
2019-05-01T02:37:21.042Z,16.46
2019-05-01T02:38:20.983Z,16.48
2019-05-01T02:39:20.882Z,16.48
2019-05-01T02:40:41.808Z,16.46
2019-05-01T02:41:20.776Z,16.45
2019-05-01T02:42:20.702Z,16.41
2019-05-01T02:43:20.607Z,16.53
2019-05-01T02:44:20.606Z,16.38
2019-05-01T02:45:20.468Z,16.49
2019-05-01T02:46:41.389Z,16.46
2019-05-01T02:47:20.364Z,16.38
2019-05-01T02:48:20.283Z,16.34
2019-05-01T02:49:20.229Z,16.33
2019-05-01T02:50:20.155Z,16.30
2019-05-01T02:51:20.059Z,16.35
2019-05-01T02:52:40.975Z,16.42
2019-05-01T02:53:19.910Z,16.38
2019-05-01T02:54:19.844Z,16.50
2019-05-01T02:55:19.792Z,16.42
2019-05-01T02:56:19.725Z,16.42
2019-05-01T02:57:19.628Z,16.48
2019-05-01T02:58:40.543Z,16.43
2019-05-01T02:59:19.532Z,16.38
2019-05-01T03:00:19.454Z,16.53
2019-05-01T03:01:19.378Z,16.50
2019-05-01T03:02:19.310Z,16.61
2019-05-01T03:03:19.212Z,16.66
2019-05-01T03:04:40.127Z,16.61
2019-05-01T03:05:19.080Z,16.63
2019-05-01T03:06:19.008Z,16.57
2019-05-01T03:07:18.956Z,16.60
2019-05-01T03:08:18.902Z,16.63
2019-05-01T03:09:18.821Z,16.70
2019-05-01T03:10:39.731Z,16.61
2019-05-01T03:11:18.672Z,16.70
2019-05-01T03:12:18.589Z,16.68
2019-05-01T03:13:18.541Z,16.61
2019-05-01T03:14:18.480Z,16.63
2019-05-01T03:15:18.387Z,16.70
2019-05-01T03:16:39.296Z,16.61
2019-05-01T03:17:18.241Z,16.61
2019-05-01T03:18:18.176Z,16.50
2019-05-01T03:19:18.131Z,16.45
2019-05-01T03:20:18.062Z,16.43
2019-05-01T03:21:18.001Z,16.50
2019-05-01T03:22:38.907Z,16.53
2019-05-01T03:23:17.840Z,16.48
2019-05-01T03:24:17.770Z,16.48
2019-05-01T03:25:17.694Z,16.39
2019-05-01T03:26:17.620Z,16.30
2019-05-01T03:27:17.582Z,16.38
2019-05-01T03:28:38.520Z,16.25
2019-05-01T03:29:17.418Z,16.34
2019-05-01T03:30:17.348Z,16.25
2019-05-01T03:31:17.401Z,16.27
2019-05-01T03:32:19.502Z,16.14
2019-05-01T03:33:17.159Z,16.17
2019-05-01T03:34:38.111Z,16.20
2019-05-01T03:35:16.998Z,16.12
2019-05-01T03:36:16.931Z,16.14
2019-05-01T03:37:16.879Z,16.09
2019-05-01T03:38:16.815Z,16.08
2019-05-01T03:39:16.717Z,16.12
2019-05-01T03:40:37.631Z,16.08
2019-05-01T03:41:16.583Z,16.04
2019-05-01T03:42:16.513Z,16.08
2019-05-01T03:43:16.465Z,16.20
2019-05-01T03:44:16.398Z,16.17
2019-05-01T03:45:16.300Z,16.15
2019-05-01T03:46:37.212Z,16.14
2019-05-01T03:47:16.195Z,16.20
2019-05-01T03:48:16.114Z,16.21
2019-05-01T03:49:16.044Z,16.20
2019-05-01T03:50:15.975Z,16.00
2019-05-01T03:51:15.882Z,16.04
2019-05-01T03:52:36.795Z,16.11
2019-05-01T03:53:15.742Z,15.82
2019-05-01T03:54:15.677Z,15.80
2019-05-01T03:55:15.632Z,15.68
2019-05-01T03:56:15.561Z,15.65
2019-05-01T03:57:15.500Z,15.71
2019-05-01T03:58:36.407Z,15.54
2019-05-01T03:59:15.325Z,15.31
2019-05-01T04:00:15.257Z,15.14
2019-05-01T04:01:15.218Z,15.13
2019-05-01T04:02:31.678Z,15.10
2019-05-01T04:03:15.047Z,15.06
2019-05-01T04:04:35.964Z,15.09
2019-05-01T04:05:14.910Z,15.17
2019-05-01T04:06:14.864Z,15.17
2019-05-01T04:07:14.796Z,15.35
2019-05-01T04:08:14.721Z,15.39
2019-05-01T04:09:14.654Z,15.43
2019-05-01T04:10:35.543Z,15.56
2019-05-01T04:11:14.489Z,15.57
2019-05-01T04:12:14.421Z,15.64
2019-05-01T04:13:14.365Z,15.65
2019-05-01T04:14:14.304Z,15.71
2019-05-01T04:15:14.235Z,15.68
2019-05-01T04:16:35.126Z,15.74
2019-05-01T04:17:14.086Z,15.71
2019-05-01T04:18:14.030Z,15.75
2019-05-01T04:19:13.958Z,15.76
2019-05-01T04:20:13.881Z,15.76
2019-05-01T04:21:13.817Z,15.92
2019-05-01T04:22:34.708Z,15.90
2019-05-01T04:23:13.649Z,15.93
2019-05-01T04:24:13.584Z,16.01
2019-05-01T04:25:13.515Z,15.93
2019-05-01T04:26:13.455Z,16.01
2019-05-01T04:27:13.396Z,16.09
2019-05-01T04:28:34.315Z,16.02
2019-05-01T04:29:13.251Z,15.96
2019-05-01T04:30:13.205Z,15.90
2019-05-01T04:31:13.089Z,15.92
2019-05-01T04:32:13.049Z,15.93
2019-05-01T04:33:12.970Z,15.96
2019-05-01T04:34:33.866Z,15.90
2019-05-01T04:35:12.890Z,15.94
2019-05-01T04:36:12.739Z,15.97
2019-05-01T04:37:12.678Z,15.94
2019-05-01T04:38:12.629Z,15.86
2019-05-01T04:39:12.546Z,15.78
2019-05-01T04:40:33.447Z,15.71
2019-05-01T04:41:12.389Z,15.74
2019-05-01T04:42:12.345Z,15.78
2019-05-01T04:43:12.282Z,15.83
2019-05-01T04:44:12.211Z,15.84
2019-05-01T04:45:12.142Z,15.94
2019-05-01T04:46:33.040Z,15.94
2019-05-01T04:47:11.974Z,15.90
2019-05-01T04:48:11.921Z,16.01
2019-05-01T04:49:11.853Z,15.94
2019-05-01T04:50:11.784Z,16.00
2019-05-01T04:51:11.689Z,15.94
2019-05-01T04:52:32.606Z,15.78
2019-05-01T04:53:11.553Z,15.74
2019-05-01T04:54:11.504Z,15.69
2019-05-01T04:55:11.432Z,15.67
2019-05-01T04:56:11.360Z,15.56
2019-05-01T04:57:11.301Z,15.65
2019-05-01T04:58:32.215Z,15.49
2019-05-01T04:59:11.138Z,15.49
2019-05-01T05:00:11.069Z,15.50
2019-05-01T05:01:10.993Z,15.39
2019-05-01T05:02:10.949Z,15.49
2019-05-01T05:03:10.881Z,15.41
2019-05-01T05:04:31.767Z,15.49
2019-05-01T05:05:10.713Z,15.46
2019-05-01T05:06:10.705Z,15.44
2019-05-01T05:07:10.600Z,15.47
2019-05-01T05:08:10.530Z,15.49
2019-05-01T05:09:10.459Z,15.57
2019-05-01T05:10:31.348Z,15.53
2019-05-01T05:11:10.324Z,15.57
2019-05-01T05:12:10.258Z,15.60
2019-05-01T05:13:10.186Z,15.60
2019-05-01T05:14:10.083Z,15.64
2019-05-01T05:15:10.015Z,15.54
2019-05-01T05:16:30.927Z,15.54
2019-05-01T05:17:09.875Z,15.60
2019-05-01T05:18:09.832Z,15.69
2019-05-01T05:19:09.778Z,15.72
2019-05-01T05:20:09.664Z,15.71
2019-05-01T05:21:09.589Z,15.86
2019-05-01T05:22:30.563Z,15.87
2019-05-01T05:23:09.478Z,15.80
2019-05-01T05:24:09.431Z,15.76
2019-05-01T05:25:09.341Z,15.59
2019-05-01T05:26:09.248Z,15.53
2019-05-01T05:27:09.177Z,15.47
2019-05-01T05:28:31.375Z,15.36
2019-05-01T05:29:09.039Z,15.46
2019-05-01T05:30:08.995Z,15.27
2019-05-01T05:31:08.922Z,15.17
2019-05-01T05:32:08.853Z,15.27
2019-05-01T05:33:18.266Z,15.17
2019-05-01T05:34:29.685Z,15.35
2019-05-01T05:35:08.615Z,15.20
2019-05-01T05:36:08.595Z,15.21
2019-05-01T05:37:08.505Z,15.31
2019-05-01T05:38:08.409Z,15.29
2019-05-01T05:39:08.339Z,15.43
2019-05-01T05:40:29.263Z,15.51
2019-05-01T05:41:08.193Z,15.47
2019-05-01T05:42:08.157Z,15.60
2019-05-01T05:43:08.080Z,15.57
2019-05-01T05:44:07.995Z,15.67
2019-05-01T05:45:07.936Z,15.67
2019-05-01T05:46:28.871Z,15.60
2019-05-01T05:47:07.806Z,15.74
2019-05-01T05:48:07.731Z,15.74
2019-05-01T05:49:07.666Z,15.65
2019-05-01T05:50:07.567Z,15.71
2019-05-01T05:51:07.505Z,15.75
2019-05-01T05:52:28.446Z,15.71
2019-05-01T05:53:07.381Z,15.69
2019-05-01T05:54:07.289Z,15.69
2019-05-01T05:55:07.224Z,15.74
2019-05-01T05:56:07.150Z,15.78
2019-05-01T05:57:07.083Z,15.83
2019-05-01T05:58:28.018Z,15.92
2019-05-01T05:59:06.958Z,15.97
2019-05-01T06:00:06.903Z,15.94
2019-05-01T06:01:06.836Z,16.01
2019-05-01T06:02:06.738Z,15.97
2019-05-01T06:03:06.659Z,15.93
2019-05-01T06:04:27.576Z,16.05
2019-05-01T06:05:06.532Z,15.94
2019-05-01T06:06:06.476Z,16.02
2019-05-01T06:07:06.406Z,16.20
2019-05-01T06:08:06.318Z,16.12
2019-05-01T06:09:09.048Z,16.07
2019-05-01T06:10:27.182Z,16.17
2019-05-01T06:11:06.132Z,16.15
2019-05-01T06:12:08.952Z,16.17
2019-05-01T06:13:05.996Z,16.17
2019-05-01T06:14:05.907Z,16.12
2019-05-01T06:15:06.307Z,16.31
2019-05-01T06:16:26.748Z,16.30
2019-05-01T06:17:05.697Z,16.28
2019-05-01T06:18:05.914Z,16.17
2019-05-01T06:19:09.587Z,16.11
2019-05-01T06:20:05.516Z,16.23
2019-05-01T06:21:05.448Z,16.20
2019-05-01T06:22:26.334Z,16.24
2019-05-01T06:23:05.281Z,16.23
2019-05-01T06:24:06.722Z,16.17
2019-05-01T06:25:05.173Z,16.11
2019-05-01T06:26:05.080Z,15.93
2019-05-01T06:27:08.925Z,15.97
2019-05-01T06:28:26.550Z,16.08
2019-05-01T06:29:04.870Z,15.96
2019-05-01T06:30:06.497Z,16.08
2019-05-01T06:31:04.757Z,16.01
2019-05-01T06:32:04.686Z,16.02
2019-05-01T06:33:09.504Z,16.09
2019-05-01T06:34:28.660Z,16.20
2019-05-01T06:35:04.646Z,16.00
2019-05-01T06:36:04.388Z,16.12
2019-05-01T06:37:04.321Z,16.20
2019-05-01T06:38:04.289Z,16.34
2019-05-01T06:39:06.828Z,16.39
2019-05-01T06:40:25.101Z,16.28
2019-05-01T06:41:04.049Z,16.33
2019-05-01T06:42:04.000Z,16.43
2019-05-01T06:43:03.938Z,16.48
2019-05-01T06:44:04.099Z,16.48
2019-05-01T06:45:03.793Z,16.68
2019-05-01T06:46:27.221Z,16.75
2019-05-01T06:47:05.124Z,16.68
2019-05-01T06:48:03.602Z,16.66
2019-05-01T06:49:03.528Z,16.71
2019-05-01T06:50:05.913Z,16.64
2019-05-01T06:51:03.363Z,16.67
2019-05-01T06:52:24.940Z,16.83
2019-05-01T06:53:04.717Z,16.89
2019-05-01T06:54:03.193Z,16.82
2019-05-01T06:55:03.126Z,16.83
2019-05-01T06:56:03.026Z,16.85
2019-05-01T06:57:02.959Z,16.93
2019-05-01T06:58:23.904Z,17.04
2019-05-01T06:59:02.853Z,17.19
2019-05-01T07:00:03.305Z,17.30
2019-05-01T07:01:02.713Z,17.25
2019-05-01T07:02:02.623Z,17.16
2019-05-01T07:03:05.957Z,17.01
2019-05-01T07:04:23.466Z,17.14
2019-05-01T07:05:02.424Z,17.18
2019-05-01T07:06:13.751Z,17.23
2019-05-01T07:07:06.682Z,17.30
2019-05-01T07:08:02.226Z,17.36
2019-05-01T07:09:02.175Z,17.51
2019-05-01T07:10:30.816Z,17.48
2019-05-01T07:11:02.007Z,17.41
2019-05-01T07:12:02.012Z,17.52
2019-05-01T07:13:04.997Z,17.41
2019-05-01T07:14:01.814Z,17.16
2019-05-01T07:15:01.741Z,17.21
2019-05-01T07:16:22.656Z,17.06
2019-05-01T07:17:01.620Z,17.16
2019-05-01T07:18:01.572Z,17.11
2019-05-01T07:19:05.770Z,16.96
2019-05-01T07:20:01.434Z,16.76
2019-05-01T07:21:01.358Z,16.91
2019-05-01T07:22:22.313Z,17.03
2019-05-01T07:23:01.201Z,16.96
2019-05-01T07:24:01.147Z,17.07
2019-05-01T07:25:03.899Z,17.12
2019-05-01T07:26:01.024Z,16.93
2019-05-01T07:27:00.959Z,16.70
2019-05-01T07:28:21.846Z,16.61
2019-05-01T07:29:00.802Z,16.73
2019-05-01T07:30:00.757Z,16.88
2019-05-01T07:31:00.721Z,16.88
2019-05-01T07:32:01.655Z,16.97
2019-05-01T07:33:00.554Z,17.06
2019-05-01T07:34:21.739Z,17.07
2019-05-01T07:35:02.173Z,17.16
2019-05-01T07:36:00.340Z,17.25
2019-05-01T07:37:00.261Z,17.37
2019-05-01T07:38:02.290Z,17.56
2019-05-01T07:39:00.145Z,17.62
2019-05-01T07:40:28.806Z,17.68
2019-05-01T07:41:03.296Z,17.78
2019-05-01T07:41:59.918Z,17.78
2019-05-01T07:42:59.853Z,17.72
2019-05-01T07:44:00.983Z,17.78
2019-05-01T07:45:03.733Z,17.92
2019-05-01T07:46:20.650Z,17.92
2019-05-01T07:46:59.586Z,17.90
2019-05-01T07:48:00.888Z,17.93
2019-05-01T07:48:59.454Z,18.00
2019-05-01T07:49:59.404Z,17.96
2019-05-01T07:51:01.941Z,18.08
2019-05-01T07:52:20.232Z,18.08
2019-05-01T07:52:59.184Z,18.17
2019-05-01T07:54:03.439Z,18.15
2019-05-01T07:54:59.077Z,18.14
2019-05-01T07:55:59.001Z,18.32
2019-05-01T07:57:03.132Z,18.44
2019-05-01T07:58:19.832Z,18.41
2019-05-01T07:58:58.780Z,18.37
2019-05-01T08:00:03.602Z,18.35
2019-05-01T08:00:58.663Z,18.25
2019-05-01T08:01:58.583Z,18.18
2019-05-01T08:03:02.551Z,18.07
2019-05-01T08:04:35.325Z,18.20
2019-05-01T08:04:58.408Z,18.17
2019-05-01T08:05:58.349Z,18.45
2019-05-01T08:06:58.675Z,18.44
2019-05-01T08:07:58.210Z,18.54
2019-05-01T08:08:58.134Z,18.54
2019-05-01T08:10:20.985Z,18.50
2019-05-01T08:10:59.827Z,18.48
2019-05-01T08:11:57.930Z,18.47
2019-05-01T08:13:00.381Z,18.63
2019-05-01T08:14:07.285Z,18.65
2019-05-01T08:14:57.748Z,18.48
2019-05-01T08:16:18.641Z,18.42
2019-05-01T08:16:57.633Z,18.48
2019-05-01T08:17:57.555Z,18.52
2019-05-01T08:18:58.903Z,18.62
2019-05-01T08:19:57.414Z,18.57
2019-05-01T08:20:57.350Z,18.48
2019-05-01T08:22:18.238Z,18.60
2019-05-01T08:22:57.188Z,18.50
2019-05-01T08:23:57.124Z,18.48
2019-05-01T08:24:58.684Z,18.63
2019-05-01T08:25:57.017Z,18.58
2019-05-01T08:26:56.941Z,18.84
2019-05-01T08:28:17.863Z,18.87
2019-05-01T08:28:56.826Z,18.99
2019-05-01T08:29:56.727Z,18.98
2019-05-01T08:30:56.678Z,18.76
2019-05-01T08:31:58.860Z,18.72
2019-05-01T08:32:56.563Z,18.78
2019-05-01T08:34:20.743Z,18.75
2019-05-01T08:35:00.406Z,18.73
2019-05-01T08:35:56.325Z,18.72
2019-05-01T08:36:56.258Z,18.62
2019-05-01T08:37:58.512Z,18.47
2019-05-01T08:38:56.149Z,18.26
2019-05-01T08:40:20.472Z,18.33
2019-05-01T08:40:56.780Z,18.32
2019-05-01T08:41:55.928Z,18.37
2019-05-01T08:42:55.860Z,18.45
2019-05-01T08:43:55.958Z,18.52
2019-05-01T08:44:59.930Z,18.52
2019-05-01T08:46:17.751Z,18.69
2019-05-01T08:46:55.622Z,18.85
2019-05-01T08:47:56.812Z,18.82
2019-05-01T08:48:55.462Z,19.02
2019-05-01T08:49:55.425Z,19.10
2019-05-01T08:50:59.067Z,19.06
2019-05-01T08:52:16.281Z,19.23
2019-05-01T08:52:55.222Z,19.18
2019-05-01T08:53:57.793Z,19.19
2019-05-01T08:54:55.246Z,18.95
2019-05-01T08:55:55.027Z,19.06
2019-05-01T08:56:58.062Z,19.00
2019-05-01T08:58:15.961Z,18.87
2019-05-01T08:58:54.798Z,19.00
2019-05-01T08:59:59.858Z,18.95
2019-05-01T09:00:54.678Z,19.04
2019-05-01T09:02:08.410Z,19.08
2019-05-01T09:03:07.633Z,19.22
2019-05-01T09:04:15.457Z,19.10
2019-05-01T09:05:02.199Z,19.19
2019-05-01T09:05:57.382Z,19.23
2019-05-01T09:06:54.299Z,19.23
2019-05-01T09:07:56.004Z,19.31
2019-05-01T09:08:54.168Z,19.26
2019-05-01T09:10:17.007Z,19.29
2019-05-01T09:10:54.642Z,19.29
2019-05-01T09:11:54.688Z,19.26
2019-05-01T09:12:53.894Z,19.39
2019-05-01T09:13:54.615Z,19.33
2019-05-01T09:14:53.781Z,19.37
2019-05-01T09:16:14.697Z,19.36
2019-05-01T09:16:53.646Z,19.31
2019-05-01T09:17:53.554Z,19.26
2019-05-01T09:18:53.485Z,19.36
2019-05-01T09:19:53.439Z,19.39
2019-05-01T09:20:53.372Z,19.43
2019-05-01T09:22:14.276Z,19.61
2019-05-01T09:22:53.224Z,19.68
2019-05-01T09:23:53.290Z,19.76
2019-05-01T09:24:53.090Z,19.74
2019-05-01T09:25:53.054Z,19.74
2019-05-01T09:26:52.985Z,19.74
2019-05-01T09:28:13.878Z,19.69
2019-05-01T09:28:52.832Z,19.56
2019-05-01T09:29:52.850Z,19.48
2019-05-01T09:30:52.717Z,19.28
2019-05-01T09:31:52.666Z,19.25
2019-05-01T09:32:54.602Z,19.19
2019-05-01T09:34:13.983Z,18.78
2019-05-01T09:34:52.442Z,18.80
2019-05-01T09:35:52.407Z,18.69
2019-05-01T09:36:52.329Z,18.82
2019-05-01T09:37:52.246Z,18.94
2019-05-01T09:38:52.172Z,18.98
2019-05-01T09:40:13.090Z,19.07
2019-05-01T09:40:52.050Z,19.33
2019-05-01T09:41:52.001Z,19.32
2019-05-01T09:42:54.604Z,19.47
2019-05-01T09:43:51.868Z,19.55
2019-05-01T09:44:51.800Z,19.71
2019-05-01T09:46:12.698Z,19.71
2019-05-01T09:46:51.644Z,19.76
2019-05-01T09:47:51.582Z,19.74
2019-05-01T09:48:51.516Z,19.76
2019-05-01T09:49:54.018Z,19.78
2019-05-01T09:50:51.421Z,19.91
2019-05-01T09:52:12.310Z,20.02
2019-05-01T09:52:55.219Z,20.02
2019-05-01T09:53:51.207Z,20.02
2019-05-01T09:54:51.159Z,20.13
2019-05-01T09:55:51.083Z,20.01
2019-05-01T09:56:51.026Z,19.95
2019-05-01T09:58:11.910Z,19.91
2019-05-01T09:58:50.864Z,19.96
2019-05-01T09:59:50.817Z,20.01
2019-05-01T10:00:52.814Z,19.99
2019-05-01T10:01:50.662Z,20.08
2019-05-01T10:02:50.646Z,20.24
2019-05-01T10:04:11.522Z,20.13
2019-05-01T10:04:50.480Z,20.08
2019-05-01T10:15:04.884Z,19.69
2019-05-01T10:16:04.776Z,19.76
2019-05-01T10:18:00.046Z,20.06
2019-05-01T10:18:59.960Z,20.05
2019-05-01T10:20:55.248Z,20.16
2019-05-01T10:21:57.944Z,20.13
2019-05-01T10:23:51.756Z,20.13
2019-05-01T10:24:50.322Z,20.26
2019-05-01T10:26:45.589Z,20.26
2019-05-01T10:27:45.501Z,20.26
2019-05-01T10:29:40.765Z,20.36
2019-05-01T10:30:40.664Z,20.32
2019-05-01T10:32:35.969Z,20.29
2019-05-01T10:33:35.869Z,20.16
2019-05-01T10:35:42.004Z,20.23
2019-05-01T10:36:31.058Z,20.24
2019-05-01T10:38:26.366Z,20.28
2019-05-01T10:39:26.253Z,20.42
2019-05-01T10:41:21.525Z,20.47
2019-05-01T10:42:21.447Z,20.41
2019-05-01T10:44:17.600Z,20.52
2019-05-01T10:45:17.484Z,20.61
2019-05-01T10:47:12.790Z,20.74
2019-05-01T10:48:12.697Z,20.74
2019-05-01T10:50:07.975Z,20.70
2019-05-01T10:51:07.877Z,20.72
2019-05-01T10:53:03.152Z,20.51
2019-05-01T10:54:03.082Z,20.42
2019-05-01T10:55:58.356Z,20.51
2019-05-01T10:56:58.835Z,20.51
2019-05-01T10:58:53.542Z,20.61
2019-05-01T10:59:53.466Z,20.66
2019-05-01T11:01:48.834Z,20.61
2019-05-01T11:02:48.675Z,20.62
2019-05-01T11:04:43.953Z,20.38
2019-05-01T11:05:55.402Z,20.35
2019-05-01T11:07:39.151Z,20.38
2019-05-01T11:08:39.062Z,20.43
2019-05-01T11:10:34.342Z,20.58
2019-05-01T11:11:34.262Z,20.64
2019-05-01T11:13:29.561Z,20.58
2019-05-01T11:14:29.458Z,20.54
2019-05-01T11:16:24.746Z,20.61
2019-05-01T11:17:24.648Z,20.72
2019-05-01T11:19:19.958Z,20.66
2019-05-01T11:20:19.843Z,20.74
2019-05-01T11:22:15.120Z,20.94
2019-05-01T11:23:15.044Z,20.92
2019-05-01T11:25:10.359Z,20.80
2019-05-01T11:26:10.234Z,20.91
2019-05-01T11:28:05.541Z,21.03
2019-05-01T11:29:05.439Z,21.06
2019-05-01T11:31:00.736Z,21.04
2019-05-01T11:32:00.648Z,21.17
2019-05-01T11:33:55.967Z,21.13
2019-05-01T11:34:55.886Z,21.07
2019-05-01T11:36:51.190Z,20.97
2019-05-01T11:37:51.074Z,21.09
2019-05-01T11:39:46.348Z,21.21
2019-05-01T11:40:46.261Z,21.17
2019-05-01T11:42:41.568Z,21.32
2019-05-01T11:43:41.473Z,21.38
2019-05-01T11:45:36.727Z,21.35
2019-05-01T11:46:36.662Z,21.37
2019-05-01T11:48:32.100Z,21.37
2019-05-01T11:49:31.859Z,21.35
2019-05-01T11:51:27.110Z,21.34
2019-05-01T11:52:27.037Z,21.34
2019-05-01T11:54:22.337Z,21.35
2019-05-01T11:55:22.221Z,21.35
2019-05-01T11:57:17.524Z,21.46
2019-05-01T11:58:17.443Z,21.44
2019-05-01T12:00:12.706Z,21.53
2019-05-01T12:01:12.608Z,21.52
2019-05-01T12:03:07.902Z,21.50
2019-05-01T12:04:07.803Z,21.58
2019-05-01T12:06:03.098Z,21.53
2019-05-01T12:07:02.991Z,21.40
2019-05-01T12:08:58.295Z,21.53
2019-05-01T12:09:58.215Z,21.50
2019-05-01T12:11:53.543Z,21.56
2019-05-01T12:12:53.422Z,21.61
2019-05-01T12:14:48.710Z,21.58
2019-05-01T12:15:48.633Z,21.53
2019-05-01T12:17:43.940Z,21.74
2019-05-01T12:18:43.829Z,21.69
2019-05-01T12:20:39.124Z,21.69
2019-05-01T12:21:39.042Z,21.75
2019-05-01T12:23:34.341Z,21.77
2019-05-01T12:24:34.235Z,21.80
2019-05-01T12:26:29.503Z,21.86
2019-05-01T12:27:29.407Z,21.83
2019-05-01T12:29:24.729Z,21.71
2019-05-01T12:30:24.624Z,21.74
2019-05-01T12:32:19.900Z,21.71
2019-05-01T12:33:19.813Z,21.82
2019-05-01T12:35:15.105Z,21.90
2019-05-01T12:36:15.010Z,21.91
2019-05-01T12:38:10.263Z,21.98
2019-05-01T12:39:10.184Z,21.94
2019-05-01T12:41:05.483Z,22.00
2019-05-01T12:42:05.369Z,21.98
2019-05-01T12:44:00.647Z,21.99
2019-05-01T12:45:00.571Z,22.03
2019-05-01T12:46:55.890Z,22.06
2019-05-01T12:47:55.778Z,22.20
2019-05-01T12:49:51.053Z,22.17
2019-05-01T12:50:50.974Z,22.15
2019-05-01T12:52:46.253Z,22.21
2019-05-01T12:53:46.157Z,22.18
2019-05-01T12:55:41.442Z,22.14
2019-05-01T12:56:41.350Z,22.18
2019-05-01T12:58:36.648Z,22.21
2019-05-01T12:59:36.540Z,22.14
2019-05-01T13:01:31.834Z,22.15
2019-05-01T13:02:31.736Z,22.24
2019-05-01T13:04:27.035Z,22.03
2019-05-01T13:05:26.943Z,22.10
2019-05-01T13:07:22.225Z,22.14
2019-05-01T13:08:22.141Z,22.15
2019-05-01T13:10:18.252Z,22.12
2019-05-01T13:11:18.165Z,22.27
2019-05-01T13:13:13.451Z,22.25
2019-05-01T13:14:13.345Z,22.35
2019-05-01T13:16:08.649Z,22.39
2019-05-01T13:17:08.553Z,22.42
2019-05-01T13:19:03.828Z,22.47
2019-05-01T13:20:03.761Z,22.54
2019-05-01T13:21:59.039Z,22.54
2019-05-01T13:22:58.943Z,22.60
2019-05-01T13:24:54.201Z,22.52
2019-05-01T13:25:54.119Z,22.65
2019-05-01T13:27:49.422Z,22.62
2019-05-01T13:28:49.329Z,22.57
2019-05-01T13:30:44.622Z,22.65
2019-05-01T13:31:44.515Z,22.58
2019-05-01T13:33:39.795Z,22.49
2019-05-01T13:34:39.695Z,22.45
2019-05-01T13:36:34.993Z,22.49
2019-05-01T13:37:34.909Z,22.46
2019-05-01T13:39:30.190Z,22.57
2019-05-01T13:40:30.101Z,22.49
2019-05-01T13:42:25.401Z,22.51
2019-05-01T13:43:25.312Z,22.49
2019-05-01T13:45:20.613Z,22.65
2019-05-01T13:46:20.496Z,22.64
2019-05-01T13:48:15.766Z,22.58
2019-05-01T13:49:15.695Z,22.64
2019-05-01T13:51:10.970Z,22.61
2019-05-01T13:52:10.876Z,22.58
2019-05-01T13:54:06.414Z,22.61
2019-05-01T13:55:06.062Z,22.68
2019-05-01T13:57:01.353Z,22.80
2019-05-01T13:58:01.248Z,22.79
2019-05-01T13:59:56.547Z,22.80
2019-05-01T14:00:56.464Z,22.80
2019-05-01T14:02:51.761Z,22.86
2019-05-01T14:03:51.663Z,22.76
2019-05-01T14:05:46.932Z,22.80
2019-05-01T14:06:46.845Z,22.80
2019-05-01T14:08:42.137Z,22.79
2019-05-01T14:09:42.034Z,22.77
2019-05-01T14:11:37.322Z,22.79
2019-05-01T14:12:37.236Z,22.90
2019-05-01T14:14:32.541Z,22.90
2019-05-01T14:15:32.425Z,22.94
2019-05-01T14:17:28.542Z,23.00